Date,TemperatureHighF,TemperatureAvgF,TemperatureLowF,DewpointHighF,DewpointAvgF,DewpointLowF,HumidityHigh,HumidityAvg,HumidityLow,PressureMaxIn,PressureMinIn,WindSpeedMaxMPH,WindSpeedAvgMPH,GustSpeedMaxMPH,PrecipitationSumIn
2013-1-1,33,31,30,31,30,28,96,94,93,30.47,30.34,6,2,8,0.05
2013-1-2,41,31,24,36,29,23,98,91,77,30.34,30.18,9,2,9,0.06
2013-1-3,40,32,22,36,27,19,91,84,65,30.19,30.10,14,3,14,0.03
2013-1-4,45,41,38,42,37,35,90,87,85,30.33,30.15,18,3,18,0.03
2013-1-5,40,38,36,36,34,32,91,87,82,30.19,30.11,15,4,15,0.00
2013-1-6,43,40,33,40,37,30,90,89,86,30.21,29.99,13,4,13,0.12
2013-1-7,51,46,42,48,43,39,92,87,85,30.18,29.90,18,5,18,0.27
2013-1-8,52,48,42,49,44,38,91,88,86,30.17,29.78,29,6,29,0.54
2013-1-9,52,40,33,48,37,30,92,88,82,29.96,29.66,28,6,28,0.52
2013-1-10,38,35,33,36,32,30,94,89,88,30.09,29.95,10,2,10,0.02
2013-1-11,40,31,25,34,27,22,94,85,58,30.31,30.09,11,1,11,0.00
2013-1-12,38,28,22,32,25,20,93,89,74,30.42,30.30,11,1,11,0.01
2013-1-13,36,26,19,30,23,17,93,89,74,30.49,30.41,5,0,5,0.00
2013-1-14,32,29,23,30,27,20,93,90,88,30.56,30.47,10,3,10,0.01
2013-1-15,37,33,32,35,30,29,94,89,88,30.67,30.55,8,1,8,0.01
2013-1-16,33,32,31,30,29,28,90,89,88,30.65,30.49,6,1,6,0.00
2013-1-17,32,31,29,30,28,26,90,90,89,30.50,30.29,7,1,7,0.00
2013-1-18,49,32,23,42,29,21,98,89,74,30.30,30.23,7,1,7,0.01
2013-1-19,34,31,29,32,28,26,91,89,88,30.35,30.29,8,2,8,0.00
2013-1-20,33,31,29,30,28,26,90,89,89,30.36,30.25,7,2,7,0.00
2013-1-21,45,32,24,37,28,22,94,87,64,30.27,30.11,11,2,11,0.01
2013-1-22,41,32,23,32,28,22,94,85,67,30.13,29.91,12,3,12,0.00
2013-1-23,36,35,34,34,32,29,93,88,76,30.17,29.84,15,4,15,0.14
2013-1-24,44,38,33,42,35,30,97,90,88,30.21,30.06,12,2,12,0.06
2013-1-25,50,43,36,47,40,32,94,89,87,30.07,29.92,14,4,14,0.05
2013-1-26,45,41,36,42,38,33,93,91,88,30.05,29.89,19,4,19,0.20
2013-1-27,41,39,37,39,37,34,93,92,90,30.10,30.01,17,5,17,0.06
2013-1-28,42,40,38,39,37,35,93,89,88,30.15,30.03,9,3,9,0.56
2013-1-29,47,44,41,45,42,38,93,90,88,30.41,30.14,16,4,16,0.21
2013-1-30,48,46,44,44,43,41,91,88,87,30.41,30.36,11,3,11,0.65
2013-1-31,48,45,38,46,42,34,93,90,87,30.42,30.31,11,3,11,0.03